sensor_id;sensor_type;location;lat;lon;timestamp;temperature;humidity
18131;DHT22;9191;54.324;10.126;2022-10-16T00:01:05;13.50;99.90
18131;DHT22;9191;54.324;10.126;2022-10-16T00:03:31;13.50;99.90
18131;DHT22;9191;54.324;10.126;2022-10-16T00:06:00;13.40;99.90
18131;DHT22;9191;54.324;10.126;2022-10-16T00:08:26;13.40;99.90
18131;DHT22;9191;54.324;10.126;2022-10-16T00:10:58;13.40;99.90
18131;DHT22;9191;54.324;10.126;2022-10-16T00:13:24;13.50;99.90
18131;DHT22;9191;54.324;10.126;2022-10-16T00:15:52;13.40;99.90
18131;DHT22;9191;54.324;10.126;2022-10-16T00:18:20;13.40;99.90
18131;DHT22;9191;54.324;10.126;2022-10-16T00:20:47;13.40;99.90
18131;DHT22;9191;54.324;10.126;2022-10-16T00:23:15;13.30;99.90
18131;DHT22;9191;54.324;10.126;2022-10-16T00:25:42;13.40;99.90
18131;DHT22;9191;54.324;10.126;2022-10-16T00:28:08;13.40;99.90
18131;DHT22;9191;54.324;10.126;2022-10-16T00:30:37;13.40;99.90
18131;DHT22;9191;54.324;10.126;2022-10-16T00:33:03;13.40;99.90
18131;DHT22;9191;54.324;10.126;2022-10-16T00:35:30;13.40;99.90
18131;DHT22;9191;54.324;10.126;2022-10-16T00:37:59;13.30;99.90
18131;DHT22;9191;54.324;10.126;2022-10-16T00:40:27;13.30;99.90
18131;DHT22;9191;54.324;10.126;2022-10-16T00:42:54;13.30;99.90
18131;DHT22;9191;54.324;10.126;2022-10-16T00:45:21;13.30;99.90
18131;DHT22;9191;54.324;10.126;2022-10-16T00:47:48;13.20;99.90
18131;DHT22;9191;54.324;10.126;2022-10-16T00:50:17;13.20;99.90
18131;DHT22;9191;54.324;10.126;2022-10-16T00:52:46;13.10;99.90
18131;DHT22;9191;54.324;10.126;2022-10-16T00:55:13;13.10;99.90
18131;DHT22;9191;54.324;10.126;2022-10-16T00:57:41;13.10;99.90
18131;DHT22;9191;54.324;10.126;2022-10-16T01:00:09;13.10;99.90
18131;DHT22;9191;54.324;10.126;2022-10-16T01:02:36;13.10;99.90
18131;DHT22;9191;54.324;10.126;2022-10-16T01:05:03;13.20;99.90
18131;DHT22;9191;54.324;10.126;2022-10-16T01:07:34;13.20;99.90
18131;DHT22;9191;54.324;10.126;2022-10-16T01:10:06;13.20;99.90
18131;DHT22;9191;54.324;10.126;2022-10-16T01:12:37;13.20;99.90
18131;DHT22;9191;54.324;10.126;2022-10-16T01:15:10;13.20;99.90
18131;DHT22;9191;54.324;10.126;2022-10-16T01:17:39;13.20;99.90
18131;DHT22;9191;54.324;10.126;2022-10-16T01:20:10;13.20;99.90
18131;DHT22;9191;54.324;10.126;2022-10-16T01:22:39;13.10;99.90
18131;DHT22;9191;54.324;10.126;2022-10-16T01:25:11;13.10;99.90
18131;DHT22;9191;54.324;10.126;2022-10-16T01:27:42;13.20;99.90
18131;DHT22;9191;54.324;10.126;2022-10-16T01:30:12;13.10;99.90
18131;DHT22;9191;54.324;10.126;2022-10-16T01:32:40;13.10;99.90
18131;DHT22;9191;54.324;10.126;2022-10-16T01:35:09;13.20;99.90
18131;DHT22;9191;54.324;10.126;2022-10-16T01:37:38;13.20;99.90
18131;DHT22;9191;54.324;10.126;2022-10-16T01:40:07;13.20;99.90
18131;DHT22;9191;54.324;10.126;2022-10-16T01:42:36;13.30;99.90
18131;DHT22;9191;54.324;10.126;2022-10-16T01:45:06;13.30;99.90
18131;DHT22;9191;54.324;10.126;2022-10-16T01:47:33;13.30;99.90
18131;DHT22;9191;54.324;10.126;2022-10-16T01:50:02;13.30;99.90
18131;DHT22;9191;54.324;10.126;2022-10-16T01:52:30;13.30;99.90
18131;DHT22;9191;54.324;10.126;2022-10-16T01:54:58;13.30;99.90
18131;DHT22;9191;54.324;10.126;2022-10-16T01:57:25;13.30;99.90
18131;DHT22;9191;54.324;10.126;2022-10-16T01:59:54;13.40;99.90
18131;DHT22;9191;54.324;10.126;2022-10-16T02:02:22;13.40;99.90
18131;DHT22;9191;54.324;10.126;2022-10-16T02:04:49;13.40;99.90
18131;DHT22;9191;54.324;10.126;2022-10-16T02:07:18;13.30;99.90
18131;DHT22;9191;54.324;10.126;2022-10-16T02:09:44;13.30;99.90
18131;DHT22;9191;54.324;10.126;2022-10-16T02:12:13;13.40;99.90
18131;DHT22;9191;54.324;10.126;2022-10-16T02:14:41;13.30;99.90
18131;DHT22;9191;54.324;10.126;2022-10-16T02:17:12;13.30;99.90
18131;DHT22;9191;54.324;10.126;2022-10-16T02:19:40;13.30;99.90
18131;DHT22;9191;54.324;10.126;2022-10-16T02:22:08;13.30;99.90
18131;DHT22;9191;54.324;10.126;2022-10-16T02:24:37;13.30;99.90
18131;DHT22;9191;54.324;10.126;2022-10-16T02:27:05;13.30;99.90
18131;DHT22;9191;54.324;10.126;2022-10-16T02:29:33;13.30;99.90
18131;DHT22;9191;54.324;10.126;2022-10-16T02:32:03;13.30;99.90
18131;DHT22;9191;54.324;10.126;2022-10-16T02:34:30;13.20;99.90
18131;DHT22;9191;54.324;10.126;2022-10-16T02:36:59;13.30;99.90
18131;DHT22;9191;54.324;10.126;2022-10-16T02:39:27;13.20;99.90
18131;DHT22;9191;54.324;10.126;2022-10-16T02:41:54;13.30;99.90
18131;DHT22;9191;54.324;10.126;2022-10-16T02:44:20;13.30;99.90
18131;DHT22;9191;54.324;10.126;2022-10-16T02:46:47;13.30;99.90
18131;DHT22;9191;54.324;10.126;2022-10-16T02:49:13;13.30;99.90
18131;DHT22;9191;54.324;10.126;2022-10-16T02:51:40;13.30;99.90
18131;DHT22;9191;54.324;10.126;2022-10-16T02:54:08;13.20;99.90
18131;DHT22;9191;54.324;10.126;2022-10-16T02:56:36;13.30;99.90
18131;DHT22;9191;54.324;10.126;2022-10-16T02:59:02;13.30;99.90
18131;DHT22;9191;54.324;10.126;2022-10-16T03:01:29;13.30;99.90
18131;DHT22;9191;54.324;10.126;2022-10-16T03:03:55;13.20;99.90
18131;DHT22;9191;54.324;10.126;2022-10-16T03:06:22;13.20;99.90
18131;DHT22;9191;54.324;10.126;2022-10-16T03:08:49;13.20;99.90
18131;DHT22;9191;54.324;10.126;2022-10-16T03:11:17;13.20;99.90
18131;DHT22;9191;54.324;10.126;2022-10-16T03:13:43;13.10;99.90
18131;DHT22;9191;54.324;10.126;2022-10-16T03:16:10;13.00;99.90
18131;DHT22;9191;54.324;10.126;2022-10-16T03:18:37;13.10;99.90
18131;DHT22;9191;54.324;10.126;2022-10-16T03:21:03;13.00;99.90
18131;DHT22;9191;54.324;10.126;2022-10-16T03:23:30;13.10;99.90
18131;DHT22;9191;54.324;10.126;2022-10-16T03:25:57;12.90;99.90
18131;DHT22;9191;54.324;10.126;2022-10-16T03:28:25;12.90;99.90
18131;DHT22;9191;54.324;10.126;2022-10-16T03:30:52;12.90;99.90
18131;DHT22;9191;54.324;10.126;2022-10-16T03:33:18;12.90;99.90
18131;DHT22;9191;54.324;10.126;2022-10-16T03:35:50;12.90;99.90
18131;DHT22;9191;54.324;10.126;2022-10-16T03:38:17;12.90;99.90
18131;DHT22;9191;54.324;10.126;2022-10-16T03:40:43;12.80;99.90
18131;DHT22;9191;54.324;10.126;2022-10-16T03:43:10;12.90;99.90
18131;DHT22;9191;54.324;10.126;2022-10-16T03:45:38;12.90;99.90
18131;DHT22;9191;54.324;10.126;2022-10-16T03:48:05;12.90;99.90
18131;DHT22;9191;54.324;10.126;2022-10-16T03:50:32;12.90;99.90
18131;DHT22;9191;54.324;10.126;2022-10-16T03:52:59;12.80;99.90
18131;DHT22;9191;54.324;10.126;2022-10-16T03:55:25;12.90;99.90
18131;DHT22;9191;54.324;10.126;2022-10-16T03:57:52;12.80;99.90
18131;DHT22;9191;54.324;10.126;2022-10-16T04:00:18;12.80;99.90
18131;DHT22;9191;54.324;10.126;2022-10-16T04:02:46;12.90;99.90
18131;DHT22;9191;54.324;10.126;2022-10-16T04:05:13;13.00;99.90
18131;DHT22;9191;54.324;10.126;2022-10-16T04:07:40;12.90;99.90
18131;DHT22;9191;54.324;10.126;2022-10-16T04:10:07;12.90;99.90
18131;DHT22;9191;54.324;10.126;2022-10-16T04:12:33;12.80;99.90
18131;DHT22;9191;54.324;10.126;2022-10-16T04:15:00;12.80;99.90
18131;DHT22;9191;54.324;10.126;2022-10-16T04:17:27;12.90;99.90
18131;DHT22;9191;54.324;10.126;2022-10-16T04:19:55;12.90;99.90
18131;DHT22;9191;54.324;10.126;2022-10-16T04:22:21;12.90;99.90
18131;DHT22;9191;54.324;10.126;2022-10-16T04:24:48;12.90;99.90
18131;DHT22;9191;54.324;10.126;2022-10-16T04:27:15;12.80;99.90
18131;DHT22;9191;54.324;10.126;2022-10-16T04:29:41;12.80;99.90
18131;DHT22;9191;54.324;10.126;2022-10-16T04:32:08;12.80;99.90
18131;DHT22;9191;54.324;10.126;2022-10-16T04:34:35;12.80;99.90
18131;DHT22;9191;54.324;10.126;2022-10-16T04:37:03;12.70;99.90
18131;DHT22;9191;54.324;10.126;2022-10-16T04:39:29;12.80;99.90
18131;DHT22;9191;54.324;10.126;2022-10-16T04:41:56;12.80;99.90
18131;DHT22;9191;54.324;10.126;2022-10-16T04:44:23;12.80;99.90
18131;DHT22;9191;54.324;10.126;2022-10-16T04:46:50;12.80;99.90
18131;DHT22;9191;54.324;10.126;2022-10-16T04:49:16;12.80;99.90
18131;DHT22;9191;54.324;10.126;2022-10-16T04:51:43;12.90;99.90
18131;DHT22;9191;54.324;10.126;2022-10-16T04:54:11;12.80;99.90
18131;DHT22;9191;54.324;10.126;2022-10-16T04:56:38;12.80;99.90
18131;DHT22;9191;54.324;10.126;2022-10-16T04:59:12;12.90;99.90
18131;DHT22;9191;54.324;10.126;2022-10-16T05:01:38;13.00;99.90
18131;DHT22;9191;54.324;10.126;2022-10-16T05:04:05;13.00;99.90
18131;DHT22;9191;54.324;10.126;2022-10-16T05:06:31;13.00;99.90
18131;DHT22;9191;54.324;10.126;2022-10-16T05:08:58;13.00;99.90
18131;DHT22;9191;54.324;10.126;2022-10-16T05:11:26;13.00;99.90
18131;DHT22;9191;54.324;10.126;2022-10-16T05:13:53;12.90;99.90
18131;DHT22;9191;54.324;10.126;2022-10-16T05:16:20;13.00;99.90
18131;DHT22;9191;54.324;10.126;2022-10-16T05:18:46;13.00;99.90
18131;DHT22;9191;54.324;10.126;2022-10-16T05:21:13;13.00;99.90
18131;DHT22;9191;54.324;10.126;2022-10-16T05:23:40;13.10;99.90
18131;DHT22;9191;54.324;10.126;2022-10-16T05:26:06;13.00;99.90
18131;DHT22;9191;54.324;10.126;2022-10-16T05:28:34;13.00;99.90
18131;DHT22;9191;54.324;10.126;2022-10-16T05:31:03;13.10;99.90
18131;DHT22;9191;54.324;10.126;2022-10-16T05:33:30;13.00;99.90
18131;DHT22;9191;54.324;10.126;2022-10-16T05:35:57;13.00;99.90
18131;DHT22;9191;54.324;10.126;2022-10-16T05:38:26;12.90;99.90
18131;DHT22;9191;54.324;10.126;2022-10-16T05:40:53;12.90;99.90
18131;DHT22;9191;54.324;10.126;2022-10-16T05:43:21;13.00;99.90
18131;DHT22;9191;54.324;10.126;2022-10-16T05:45:56;13.00;99.90
18131;DHT22;9191;54.324;10.126;2022-10-16T05:48:23;13.00;99.90
18131;DHT22;9191;54.324;10.126;2022-10-16T05:50:55;13.00;99.90
18131;DHT22;9191;54.324;10.126;2022-10-16T05:53:22;13.00;99.90
18131;DHT22;9191;54.324;10.126;2022-10-16T05:55:53;13.00;99.90
18131;DHT22;9191;54.324;10.126;2022-10-16T05:58:20;13.00;99.90
18131;DHT22;9191;54.324;10.126;2022-10-16T06:00:52;13.10;99.90
18131;DHT22;9191;54.324;10.126;2022-10-16T06:03:20;13.10;99.90
18131;DHT22;9191;54.324;10.126;2022-10-16T06:05:47;13.10;99.90
18131;DHT22;9191;54.324;10.126;2022-10-16T06:08:13;13.20;99.90
18131;DHT22;9191;54.324;10.126;2022-10-16T06:10:40;13.10;99.90
18131;DHT22;9191;54.324;10.126;2022-10-16T06:13:07;13.20;99.90
18131;DHT22;9191;54.324;10.126;2022-10-16T06:15:34;13.20;99.90
18131;DHT22;9191;54.324;10.126;2022-10-16T06:18:00;13.20;99.90
18131;DHT22;9191;54.324;10.126;2022-10-16T06:20:28;13.20;99.90
18131;DHT22;9191;54.324;10.126;2022-10-16T06:22:55;13.20;99.90
18131;DHT22;9191;54.324;10.126;2022-10-16T06:25:22;13.20;99.90
18131;DHT22;9191;54.324;10.126;2022-10-16T06:27:48;13.20;99.90
18131;DHT22;9191;54.324;10.126;2022-10-16T06:30:15;13.30;99.90
18131;DHT22;9191;54.324;10.126;2022-10-16T06:32:42;13.40;99.90
18131;DHT22;9191;54.324;10.126;2022-10-16T06:35:08;13.30;99.90
18131;DHT22;9191;54.324;10.126;2022-10-16T06:37:36;13.40;99.90
18131;DHT22;9191;54.324;10.126;2022-10-16T06:40:03;13.40;99.90
18131;DHT22;9191;54.324;10.126;2022-10-16T06:42:30;13.40;99.90
18131;DHT22;9191;54.324;10.126;2022-10-16T06:44:57;13.70;99.90
18131;DHT22;9191;54.324;10.126;2022-10-16T06:47:23;14.30;99.90
18131;DHT22;9191;54.324;10.126;2022-10-16T06:49:50;14.70;99.90
18131;DHT22;9191;54.324;10.126;2022-10-16T06:52:17;14.50;99.90
18131;DHT22;9191;54.324;10.126;2022-10-16T06:54:45;14.30;99.90
18131;DHT22;9191;54.324;10.126;2022-10-16T06:57:11;14.00;99.90
18131;DHT22;9191;54.324;10.126;2022-10-16T06:59:38;13.90;99.90
18131;DHT22;9191;54.324;10.126;2022-10-16T07:02:04;13.90;99.90
18131;DHT22;9191;54.324;10.126;2022-10-16T07:04:32;13.80;99.90
18131;DHT22;9191;54.324;10.126;2022-10-16T07:06:59;13.80;99.90
18131;DHT22;9191;54.324;10.126;2022-10-16T07:09:26;13.80;99.90
18131;DHT22;9191;54.324;10.126;2022-10-16T07:11:54;13.80;99.90
18131;DHT22;9191;54.324;10.126;2022-10-16T07:14:21;14.00;99.90
18131;DHT22;9191;54.324;10.126;2022-10-16T07:16:48;14.20;99.90
18131;DHT22;9191;54.324;10.126;2022-10-16T07:19:15;14.30;99.90
18131;DHT22;9191;54.324;10.126;2022-10-16T07:21:43;14.30;99.90
18131;DHT22;9191;54.324;10.126;2022-10-16T07:24:11;14.40;99.90
18131;DHT22;9191;54.324;10.126;2022-10-16T07:26:38;14.50;99.90
18131;DHT22;9191;54.324;10.126;2022-10-16T07:29:06;15.10;99.90
18131;DHT22;9191;54.324;10.126;2022-10-16T07:31:33;15.10;99.90
18131;DHT22;9191;54.324;10.126;2022-10-16T07:34:00;15.00;99.90
18131;DHT22;9191;54.324;10.126;2022-10-16T07:36:26;14.80;99.90
18131;DHT22;9191;54.324;10.126;2022-10-16T07:38:53;14.70;99.90
18131;DHT22;9191;54.324;10.126;2022-10-16T07:41:20;14.70;99.90
18131;DHT22;9191;54.324;10.126;2022-10-16T07:43:47;14.60;99.90
18131;DHT22;9191;54.324;10.126;2022-10-16T07:46:15;14.60;99.90
18131;DHT22;9191;54.324;10.126;2022-10-16T07:48:42;14.70;99.90
18131;DHT22;9191;54.324;10.126;2022-10-16T07:51:12;15.00;99.90
18131;DHT22;9191;54.324;10.126;2022-10-16T07:53:39;16.10;99.90
18131;DHT22;9191;54.324;10.126;2022-10-16T07:56:06;16.60;99.90
18131;DHT22;9191;54.324;10.126;2022-10-16T07:58:33;17.50;99.90
18131;DHT22;9191;54.324;10.126;2022-10-16T08:01:03;18.80;99.90
18131;DHT22;9191;54.324;10.126;2022-10-16T08:03:31;19.90;99.90
18131;DHT22;9191;54.324;10.126;2022-10-16T08:05:58;20.40;99.90
18131;DHT22;9191;54.324;10.126;2022-10-16T08:08:26;19.90;99.90
18131;DHT22;9191;54.324;10.126;2022-10-16T08:10:53;19.30;99.90
18131;DHT22;9191;54.324;10.126;2022-10-16T08:13:19;19.00;99.90
18131;DHT22;9191;54.324;10.126;2022-10-16T08:15:47;19.60;99.90
18131;DHT22;9191;54.324;10.126;2022-10-16T08:18:14;20.50;99.90
18131;DHT22;9191;54.324;10.126;2022-10-16T08:20:42;21.10;99.90
18131;DHT22;9191;54.324;10.126;2022-10-16T08:23:09;21.50;99.90
18131;DHT22;9191;54.324;10.126;2022-10-16T08:25:37;21.50;99.90
18131;DHT22;9191;54.324;10.126;2022-10-16T08:28:04;21.10;99.90
18131;DHT22;9191;54.324;10.126;2022-10-16T08:30:31;21.40;99.90
18131;DHT22;9191;54.324;10.126;2022-10-16T08:32:57;21.60;99.90
18131;DHT22;9191;54.324;10.126;2022-10-16T08:35:24;21.70;99.90
18131;DHT22;9191;54.324;10.126;2022-10-16T08:37:52;21.70;99.90
18131;DHT22;9191;54.324;10.126;2022-10-16T08:40:20;21.90;99.90
18131;DHT22;9191;54.324;10.126;2022-10-16T08:42:50;22.40;99.90
18131;DHT22;9191;54.324;10.126;2022-10-16T08:45:23;21.90;99.90
18131;DHT22;9191;54.324;10.126;2022-10-16T08:47:56;22.30;99.90
18131;DHT22;9191;54.324;10.126;2022-10-16T08:50:27;22.30;99.90
18131;DHT22;9191;54.324;10.126;2022-10-16T08:52:55;22.40;99.90
18131;DHT22;9191;54.324;10.126;2022-10-16T08:55:28;22.00;99.90
18131;DHT22;9191;54.324;10.126;2022-10-16T08:57:55;22.00;99.90
18131;DHT22;9191;54.324;10.126;2022-10-16T09:00:22;22.20;99.90
18131;DHT22;9191;54.324;10.126;2022-10-16T09:02:50;22.40;99.90
18131;DHT22;9191;54.324;10.126;2022-10-16T09:05:21;22.40;99.90
18131;DHT22;9191;54.324;10.126;2022-10-16T09:07:51;23.10;99.90
18131;DHT22;9191;54.324;10.126;2022-10-16T09:10:24;23.90;99.90
18131;DHT22;9191;54.324;10.126;2022-10-16T09:12:53;24.60;99.90
18131;DHT22;9191;54.324;10.126;2022-10-16T09:15:24;25.10;99.90
18131;DHT22;9191;54.324;10.126;2022-10-16T09:17:56;24.60;99.90
18131;DHT22;9191;54.324;10.126;2022-10-16T09:20:28;24.90;99.90
18131;DHT22;9191;54.324;10.126;2022-10-16T09:23:00;24.80;99.90
18131;DHT22;9191;54.324;10.126;2022-10-16T09:25:32;24.90;99.90
18131;DHT22;9191;54.324;10.126;2022-10-16T09:28:00;25.30;99.90
18131;DHT22;9191;54.324;10.126;2022-10-16T09:30:27;25.10;99.90
18131;DHT22;9191;54.324;10.126;2022-10-16T09:32:55;24.90;99.90
18131;DHT22;9191;54.324;10.126;2022-10-16T09:35:26;25.40;99.90
18131;DHT22;9191;54.324;10.126;2022-10-16T09:37:54;25.60;99.90
18131;DHT22;9191;54.324;10.126;2022-10-16T09:40:24;25.40;99.90
18131;DHT22;9191;54.324;10.126;2022-10-16T09:42:54;25.00;99.90
18131;DHT22;9191;54.324;10.126;2022-10-16T09:45:23;24.80;99.90
18131;DHT22;9191;54.324;10.126;2022-10-16T09:47:50;24.60;99.90
18131;DHT22;9191;54.324;10.126;2022-10-16T09:50:20;23.10;99.90
18131;DHT22;9191;54.324;10.126;2022-10-16T09:52:48;22.70;99.90
18131;DHT22;9191;54.324;10.126;2022-10-16T09:55:15;22.00;99.90
18131;DHT22;9191;54.324;10.126;2022-10-16T09:57:48;21.20;99.90
18131;DHT22;9191;54.324;10.126;2022-10-16T10:00:16;20.90;99.90
18131;DHT22;9191;54.324;10.126;2022-10-16T10:02:43;20.40;99.90
18131;DHT22;9191;54.324;10.126;2022-10-16T10:05:17;20.30;99.90
18131;DHT22;9191;54.324;10.126;2022-10-16T10:07:44;20.10;99.90
18131;DHT22;9191;54.324;10.126;2022-10-16T10:10:18;19.70;99.90
18131;DHT22;9191;54.324;10.126;2022-10-16T10:12:45;19.50;99.90
18131;DHT22;9191;54.324;10.126;2022-10-16T10:15:12;19.50;99.90
18131;DHT22;9191;54.324;10.126;2022-10-16T10:17:47;19.60;99.90
18131;DHT22;9191;54.324;10.126;2022-10-16T10:20:24;19.20;99.90
18131;DHT22;9191;54.324;10.126;2022-10-16T10:22:51;19.00;99.90
18131;DHT22;9191;54.324;10.126;2022-10-16T10:25:33;19.10;99.90
18131;DHT22;9191;54.324;10.126;2022-10-16T10:28:06;19.20;99.90
18131;DHT22;9191;54.324;10.126;2022-10-16T10:30:38;19.20;99.90
18131;DHT22;9191;54.324;10.126;2022-10-16T10:33:21;19.30;99.90
18131;DHT22;9191;54.324;10.126;2022-10-16T10:35:53;19.20;99.90
18131;DHT22;9191;54.324;10.126;2022-10-16T10:38:34;19.00;99.90
18131;DHT22;9191;54.324;10.126;2022-10-16T10:41:09;19.20;99.90
18131;DHT22;9191;54.324;10.126;2022-10-16T10:43:45;19.10;99.90
18131;DHT22;9191;54.324;10.126;2022-10-16T10:46:16;19.20;99.90
18131;DHT22;9191;54.324;10.126;2022-10-16T10:48:50;19.20;99.90
18131;DHT22;9191;54.324;10.126;2022-10-16T10:51:24;18.90;99.90
18131;DHT22;9191;54.324;10.126;2022-10-16T10:56:59;18.70;99.90
18131;DHT22;9191;54.324;10.126;2022-10-16T10:59:32;18.60;99.90
18131;DHT22;9191;54.324;10.126;2022-10-16T11:02:01;18.50;99.90
18131;DHT22;9191;54.324;10.126;2022-10-16T11:07:15;18.50;99.90
18131;DHT22;9191;54.324;10.126;2022-10-16T11:09:43;18.50;99.90
18131;DHT22;9191;54.324;10.126;2022-10-16T11:12:12;18.50;99.90
18131;DHT22;9191;54.324;10.126;2022-10-16T11:14:42;18.40;99.90
18131;DHT22;9191;54.324;10.126;2022-10-16T11:17:15;18.40;99.90
18131;DHT22;9191;54.324;10.126;2022-10-16T11:19:55;18.40;99.90
18131;DHT22;9191;54.324;10.126;2022-10-16T11:22:25;18.30;99.90
18131;DHT22;9191;54.324;10.126;2022-10-16T11:24:55;18.40;99.90
18131;DHT22;9191;54.324;10.126;2022-10-16T11:27:26;18.40;99.90
18131;DHT22;9191;54.324;10.126;2022-10-16T11:29:56;18.40;99.90
18131;DHT22;9191;54.324;10.126;2022-10-16T11:32:24;18.40;99.90
18131;DHT22;9191;54.324;10.126;2022-10-16T11:34:55;18.30;99.90
18131;DHT22;9191;54.324;10.126;2022-10-16T11:37:25;18.10;99.90
18131;DHT22;9191;54.324;10.126;2022-10-16T11:39:57;18.00;99.90
18131;DHT22;9191;54.324;10.126;2022-10-16T11:42:27;18.00;99.90
18131;DHT22;9191;54.324;10.126;2022-10-16T11:44:57;18.10;99.90
18131;DHT22;9191;54.324;10.126;2022-10-16T11:47:27;18.20;99.90
18131;DHT22;9191;54.324;10.126;2022-10-16T11:49:57;18.10;99.90
18131;DHT22;9191;54.324;10.126;2022-10-16T11:52:28;18.00;99.90
18131;DHT22;9191;54.324;10.126;2022-10-16T11:54:58;18.00;99.90
18131;DHT22;9191;54.324;10.126;2022-10-16T11:57:26;17.90;99.90
18131;DHT22;9191;54.324;10.126;2022-10-16T11:59:55;18.00;99.90
18131;DHT22;9191;54.324;10.126;2022-10-16T12:02:26;18.10;99.90
18131;DHT22;9191;54.324;10.126;2022-10-16T12:04:57;18.20;99.90
18131;DHT22;9191;54.324;10.126;2022-10-16T12:07:31;18.30;99.90
18131;DHT22;9191;54.324;10.126;2022-10-16T12:10:09;18.40;99.90
18131;DHT22;9191;54.324;10.126;2022-10-16T12:12:37;18.50;99.90
18131;DHT22;9191;54.324;10.126;2022-10-16T12:15:18;18.30;99.90
18131;DHT22;9191;54.324;10.126;2022-10-16T12:17:45;18.30;99.90
18131;DHT22;9191;54.324;10.126;2022-10-16T12:20:22;18.20;99.90
18131;DHT22;9191;54.324;10.126;2022-10-16T12:22:53;18.20;99.90
18131;DHT22;9191;54.324;10.126;2022-10-16T12:25:21;18.20;99.90
18131;DHT22;9191;54.324;10.126;2022-10-16T12:27:53;17.90;99.90
18131;DHT22;9191;54.324;10.126;2022-10-16T12:30:22;18.00;99.90
18131;DHT22;9191;54.324;10.126;2022-10-16T12:32:52;17.90;99.90
18131;DHT22;9191;54.324;10.126;2022-10-16T12:35:20;17.70;99.90
18131;DHT22;9191;54.324;10.126;2022-10-16T12:37:48;17.70;99.90
18131;DHT22;9191;54.324;10.126;2022-10-16T12:40:23;17.80;99.90
18131;DHT22;9191;54.324;10.126;2022-10-16T12:42:50;17.80;99.90
18131;DHT22;9191;54.324;10.126;2022-10-16T12:45:27;17.90;99.90
18131;DHT22;9191;54.324;10.126;2022-10-16T12:47:55;18.00;99.90
18131;DHT22;9191;54.324;10.126;2022-10-16T12:50:25;18.20;99.90
18131;DHT22;9191;54.324;10.126;2022-10-16T12:52:52;18.30;99.90
18131;DHT22;9191;54.324;10.126;2022-10-16T12:55:21;18.50;99.90
18131;DHT22;9191;54.324;10.126;2022-10-16T12:57:55;18.50;99.90
18131;DHT22;9191;54.324;10.126;2022-10-16T13:00:25;18.30;99.90
18131;DHT22;9191;54.324;10.126;2022-10-16T13:03:07;18.20;99.90
18131;DHT22;9191;54.324;10.126;2022-10-16T13:05:38;17.90;99.90
18131;DHT22;9191;54.324;10.126;2022-10-16T13:08:16;17.80;99.90
18131;DHT22;9191;54.324;10.126;2022-10-16T13:10:51;17.50;99.90
18131;DHT22;9191;54.324;10.126;2022-10-16T13:13:26;17.50;99.90
18131;DHT22;9191;54.324;10.126;2022-10-16T13:16:08;17.40;99.90
18131;DHT22;9191;54.324;10.126;2022-10-16T13:18:40;17.30;99.90
18131;DHT22;9191;54.324;10.126;2022-10-16T13:21:13;17.20;99.90
18131;DHT22;9191;54.324;10.126;2022-10-16T13:23:46;17.00;99.90
18131;DHT22;9191;54.324;10.126;2022-10-16T13:26:19;17.00;99.90
18131;DHT22;9191;54.324;10.126;2022-10-16T13:28:49;17.00;99.90
18131;DHT22;9191;54.324;10.126;2022-10-16T13:31:17;16.90;99.90
18131;DHT22;9191;54.324;10.126;2022-10-16T13:33:46;17.00;99.90
18131;DHT22;9191;54.324;10.126;2022-10-16T13:36:19;16.90;99.90
18131;DHT22;9191;54.324;10.126;2022-10-16T13:38:46;16.90;99.90
18131;DHT22;9191;54.324;10.126;2022-10-16T13:41:14;16.80;99.90
18131;DHT22;9191;54.324;10.126;2022-10-16T13:43:42;16.70;99.90
18131;DHT22;9191;54.324;10.126;2022-10-16T13:46:11;16.90;99.90
18131;DHT22;9191;54.324;10.126;2022-10-16T13:48:38;16.90;99.90
18131;DHT22;9191;54.324;10.126;2022-10-16T13:51:06;17.00;99.90
18131;DHT22;9191;54.324;10.126;2022-10-16T13:53:37;17.00;99.90
18131;DHT22;9191;54.324;10.126;2022-10-16T13:56:05;17.00;99.90
18131;DHT22;9191;54.324;10.126;2022-10-16T13:58:32;16.90;99.90
18131;DHT22;9191;54.324;10.126;2022-10-16T14:01:01;16.90;99.90
18131;DHT22;9191;54.324;10.126;2022-10-16T14:03:28;16.90;99.90
18131;DHT22;9191;54.324;10.126;2022-10-16T14:05:56;16.80;99.90
18131;DHT22;9191;54.324;10.126;2022-10-16T14:08:25;16.80;99.90
18131;DHT22;9191;54.324;10.126;2022-10-16T14:10:52;16.80;99.90
18131;DHT22;9191;54.324;10.126;2022-10-16T14:13:22;16.80;99.90
18131;DHT22;9191;54.324;10.126;2022-10-16T14:15:51;16.80;99.90
18131;DHT22;9191;54.324;10.126;2022-10-16T14:18:21;16.80;99.90
18131;DHT22;9191;54.324;10.126;2022-10-16T14:20:48;16.90;99.90
18131;DHT22;9191;54.324;10.126;2022-10-16T14:23:19;16.90;99.90
18131;DHT22;9191;54.324;10.126;2022-10-16T14:25:46;16.90;99.90
18131;DHT22;9191;54.324;10.126;2022-10-16T14:28:15;16.90;99.90
18131;DHT22;9191;54.324;10.126;2022-10-16T14:30:49;16.90;99.90
18131;DHT22;9191;54.324;10.126;2022-10-16T14:33:24;16.90;99.90
18131;DHT22;9191;54.324;10.126;2022-10-16T14:36:04;16.90;99.90
18131;DHT22;9191;54.324;10.126;2022-10-16T14:38:31;16.80;99.90
18131;DHT22;9191;54.324;10.126;2022-10-16T14:40:58;16.80;99.90
18131;DHT22;9191;54.324;10.126;2022-10-16T14:43:27;16.70;99.90
18131;DHT22;9191;54.324;10.126;2022-10-16T14:45:55;16.70;99.90
18131;DHT22;9191;54.324;10.126;2022-10-16T14:48:24;16.70;99.90
18131;DHT22;9191;54.324;10.126;2022-10-16T14:50:51;16.70;99.90
18131;DHT22;9191;54.324;10.126;2022-10-16T14:53:17;16.60;99.90
18131;DHT22;9191;54.324;10.126;2022-10-16T14:55:44;16.60;99.90
18131;DHT22;9191;54.324;10.126;2022-10-16T14:58:13;16.60;99.90
18131;DHT22;9191;54.324;10.126;2022-10-16T15:00:41;16.60;99.90
18131;DHT22;9191;54.324;10.126;2022-10-16T15:03:07;16.60;99.90
18131;DHT22;9191;54.324;10.126;2022-10-16T15:05:36;16.40;99.90
18131;DHT22;9191;54.324;10.126;2022-10-16T15:08:02;16.50;99.90
18131;DHT22;9191;54.324;10.126;2022-10-16T15:10:30;16.50;99.90
18131;DHT22;9191;54.324;10.126;2022-10-16T15:12:58;16.40;99.90
18131;DHT22;9191;54.324;10.126;2022-10-16T15:15:25;16.30;99.90
18131;DHT22;9191;54.324;10.126;2022-10-16T15:17:55;16.30;99.90
18131;DHT22;9191;54.324;10.126;2022-10-16T15:20:22;16.40;99.90
18131;DHT22;9191;54.324;10.126;2022-10-16T15:22:50;16.30;99.90
18131;DHT22;9191;54.324;10.126;2022-10-16T15:25:24;16.30;99.90
18131;DHT22;9191;54.324;10.126;2022-10-16T15:27:52;16.10;99.90
18131;DHT22;9191;54.324;10.126;2022-10-16T15:30:18;16.00;99.90
18131;DHT22;9191;54.324;10.126;2022-10-16T15:32:45;15.90;99.90
18131;DHT22;9191;54.324;10.126;2022-10-16T15:35:12;15.90;99.90
18131;DHT22;9191;54.324;10.126;2022-10-16T15:37:38;15.90;99.90
18131;DHT22;9191;54.324;10.126;2022-10-16T15:40:07;15.90;99.90
18131;DHT22;9191;54.324;10.126;2022-10-16T15:42:34;15.80;99.90
18131;DHT22;9191;54.324;10.126;2022-10-16T15:45:01;15.70;99.90